createdAt,value
2018-10-09T00:01:44.028Z,9.13
2018-10-09T00:04:11.775Z,8.37
2018-10-09T00:06:59.145Z,9.37
2018-10-09T00:09:26.919Z,6.83
2018-10-09T00:11:54.741Z,6.70
2018-10-09T00:14:22.633Z,8.17
2018-10-09T00:16:50.420Z,8.90
2018-10-09T00:19:18.197Z,7.27
2018-10-09T00:21:46.031Z,8.37
2018-10-09T00:24:15.903Z,8.27
2018-10-09T00:26:43.667Z,7.13
2018-10-09T00:29:11.519Z,8.47
2018-10-09T00:31:39.297Z,10.33
2018-10-09T00:34:12.393Z,7.73
2018-10-09T00:36:40.125Z,7.20
2018-10-09T00:39:08.911Z,5.70
2018-10-09T00:41:36.773Z,5.63
2018-10-09T00:44:10.913Z,7.07
2018-10-09T00:46:38.721Z,7.63
2018-10-09T00:49:06.637Z,6.23
2018-10-09T00:51:34.470Z,7.07
2018-10-09T00:54:08.314Z,7.57
2018-10-09T00:56:36.125Z,7.43
2018-10-09T00:59:03.931Z,6.53
2018-10-09T01:01:31.756Z,7.10
2018-10-09T01:04:01.626Z,7.93
2018-10-09T01:06:29.355Z,5.63
2018-10-09T01:08:57.192Z,6.97
2018-10-09T01:11:25.009Z,7.43
2018-10-09T01:13:53.919Z,6.27
2018-10-09T01:16:21.879Z,6.60
2018-10-09T01:18:49.715Z,5.20
2018-10-09T01:21:17.617Z,5.97
2018-10-09T01:23:49.691Z,5.83
2018-10-09T01:26:17.512Z,4.87
2018-10-09T01:28:45.281Z,7.13
2018-10-09T01:31:13.056Z,7.43
2018-10-09T01:33:48.916Z,5.10
2018-10-09T01:36:16.894Z,6.37
2018-10-09T01:38:44.679Z,7.87
2018-10-09T01:41:12.439Z,5.10
2018-10-09T01:43:40.402Z,7.63
2018-10-09T01:46:08.187Z,6.70
2018-10-09T01:48:35.970Z,6.87
2018-10-09T01:51:03.791Z,5.97
2018-10-09T01:53:35.437Z,5.80
2018-10-09T01:56:03.293Z,6.70
2018-10-09T01:58:31.161Z,6.40
2018-10-09T02:00:58.984Z,5.87
2018-10-09T02:03:39.413Z,6.87
2018-10-09T02:06:08.293Z,6.70
2018-10-09T02:08:36.133Z,5.53
2018-10-09T02:11:03.947Z,6.43
2018-10-09T02:13:37.571Z,7.13
2018-10-09T02:16:05.459Z,8.30
2018-10-09T02:18:33.221Z,7.47
2018-10-09T02:21:00.999Z,5.83
2018-10-09T02:23:28.899Z,7.30
2018-10-09T02:25:56.769Z,8.27
2018-10-09T02:28:24.570Z,8.53
2018-10-09T02:30:52.378Z,6.13
2018-10-09T02:33:20.510Z,7.20
2018-10-09T02:35:48.322Z,8.90
2018-10-09T02:38:16.153Z,9.30
2018-10-09T02:40:43.993Z,6.30
2018-10-09T02:43:12.007Z,7.60
2018-10-09T02:45:39.837Z,6.13
2018-10-09T02:48:07.629Z,7.23
2018-10-09T02:50:35.403Z,6.37
2018-10-09T02:53:03.183Z,6.80
2018-10-09T02:55:30.939Z,8.30
2018-10-09T02:57:58.697Z,6.90
2018-10-09T03:00:26.466Z,5.93
2018-10-09T03:02:54.323Z,6.80
2018-10-09T03:05:22.096Z,5.33
2018-10-09T03:07:50.001Z,5.90
2018-10-09T03:10:17.836Z,7.50
2018-10-09T03:12:45.699Z,5.13
2018-10-09T03:15:13.635Z,6.43
2018-10-09T03:17:41.501Z,10.63
2018-10-09T03:20:09.323Z,7.33
2018-10-09T03:22:37.153Z,6.63
2018-10-09T03:25:05.227Z,8.73
2018-10-09T03:27:33.001Z,4.93
2018-10-09T03:30:00.762Z,5.53
2018-10-09T03:32:28.573Z,5.83
2018-10-09T03:35:00.069Z,8.03
2018-10-09T03:37:27.881Z,6.40
2018-10-09T03:39:55.657Z,5.53
2018-10-09T03:42:23.456Z,5.20
2018-10-09T03:44:56.288Z,6.43
2018-10-09T03:47:24.136Z,6.30
2018-10-09T03:49:51.955Z,5.63
2018-10-09T03:52:19.775Z,7.10
2018-10-09T03:54:47.763Z,7.53
2018-10-09T03:57:15.561Z,5.57
2018-10-09T03:59:43.374Z,6.40
2018-10-09T04:02:11.684Z,8.17
2018-10-09T04:04:39.612Z,7.23
2018-10-09T04:09:34.404Z,6.40
2018-10-09T04:12:02.113Z,7.33
2018-10-09T04:14:35.103Z,6.13
2018-10-09T04:17:02.884Z,7.47
2018-10-09T04:19:30.854Z,6.27
2018-10-09T04:21:59.541Z,6.60
2018-10-09T04:24:27.318Z,7.40
2018-10-09T04:26:55.136Z,8.43
2018-10-09T04:29:23.056Z,7.63
2018-10-09T04:31:51.006Z,7.30
2018-10-09T04:34:18.802Z,8.17
2018-10-09T04:36:46.593Z,6.57
2018-10-09T04:39:14.374Z,6.50
2018-10-09T04:41:42.137Z,6.50
2018-10-09T04:44:09.907Z,7.87
2018-10-09T04:46:37.677Z,10.63
2018-10-09T04:49:05.495Z,9.20
2018-10-09T04:51:33.277Z,6.27
2018-10-09T04:54:01.188Z,6.97
2018-10-09T04:56:29.125Z,8.27
2018-10-09T04:58:56.919Z,5.80
2018-10-09T05:01:25.101Z,6.70
2018-10-09T05:03:53.038Z,8.73
2018-10-09T05:06:21.889Z,6.07
2018-10-09T05:08:49.860Z,7.13
2018-10-09T05:11:18.712Z,9.50
2018-10-09T05:13:46.482Z,7.07
2018-10-09T05:16:14.294Z,6.67
2018-10-09T05:18:42.218Z,8.20
2018-10-09T05:21:10.113Z,9.40
2018-10-09T05:23:38.079Z,9.87
2018-10-09T05:26:06.018Z,8.30
2018-10-09T05:28:34.728Z,10.23
2018-10-09T05:31:02.614Z,9.17
2018-10-09T05:33:30.812Z,8.80
2018-10-09T05:35:59.352Z,8.80
2018-10-09T05:38:27.121Z,8.60
2018-10-09T05:40:56.007Z,6.73
2018-10-09T05:43:23.858Z,6.03
2018-10-09T05:45:56.658Z,7.73
2018-10-09T05:48:26.900Z,9.47
2018-10-09T05:50:55.738Z,7.00
2018-10-09T05:53:25.450Z,6.63
2018-10-09T05:55:53.279Z,9.33
2018-10-09T05:58:21.156Z,9.57
2018-10-09T06:00:49.014Z,7.93
2018-10-09T06:03:16.866Z,11.87
2018-10-09T06:05:44.808Z,9.53
2018-10-09T06:08:15.561Z,7.40
2018-10-09T06:10:43.480Z,11.57
2018-10-09T06:13:11.285Z,7.00
2018-10-09T06:15:39.165Z,6.33
2018-10-09T06:18:06.941Z,11.40
2018-10-09T06:20:34.967Z,9.47
2018-10-09T06:23:02.965Z,8.23
2018-10-09T06:25:30.829Z,10.50
2018-10-09T06:27:59.019Z,8.60
2018-10-09T06:30:27.047Z,8.53
2018-10-09T06:32:55.057Z,7.30
2018-10-09T06:35:23.081Z,8.37
2018-10-09T06:37:51.200Z,6.60
2018-10-09T06:40:19.279Z,11.10
2018-10-09T06:42:47.383Z,8.70
2018-10-09T06:45:15.467Z,9.67
2018-10-09T06:47:43.615Z,11.33
2018-10-09T06:50:11.563Z,7.83
2018-10-09T06:52:40.177Z,8.97
2018-10-09T06:55:08.216Z,8.70
2018-10-09T06:57:36.235Z,9.87
2018-10-09T07:00:04.437Z,13.83
2018-10-09T07:02:32.531Z,14.60
2018-10-09T07:05:00.553Z,20.63
2018-10-09T07:07:28.577Z,14.70
2018-10-09T07:09:56.669Z,19.10
2018-10-09T07:12:24.753Z,12.87
2018-10-09T07:14:52.765Z,9.63
2018-10-09T07:17:21.459Z,14.83
2018-10-09T07:19:50.603Z,12.63
2018-10-09T07:22:19.611Z,13.70
2018-10-09T07:24:51.347Z,16.50
2018-10-09T07:27:19.376Z,21.73
2018-10-09T07:29:47.418Z,22.57
2018-10-09T07:32:15.534Z,19.27
2018-10-09T07:34:43.594Z,17.97
2018-10-09T07:37:11.668Z,16.20
2018-10-09T07:39:39.685Z,19.30
2018-10-09T07:42:07.753Z,15.90
2018-10-09T07:44:35.805Z,18.50
2018-10-09T07:47:03.919Z,16.47
2018-10-09T07:49:31.923Z,19.83
2018-10-09T07:51:59.983Z,20.40
2018-10-09T07:54:28.061Z,19.30
2018-10-09T07:56:56.093Z,21.73
2018-10-09T07:59:24.159Z,19.07
2018-10-09T08:01:52.202Z,18.53
2018-10-09T08:04:20.197Z,16.47
2018-10-09T08:06:48.184Z,20.67
2018-10-09T08:09:16.177Z,19.10
2018-10-09T08:11:44.196Z,20.67
2018-10-09T08:14:12.176Z,15.53
2018-10-09T08:16:40.247Z,16.17
2018-10-09T08:19:08.275Z,15.43
2018-10-09T08:21:36.342Z,18.40
2018-10-09T08:24:04.463Z,15.63
2018-10-09T08:26:32.489Z,25.17
2018-10-09T08:29:00.545Z,19.73
2018-10-09T08:31:28.583Z,22.30
2018-10-09T08:33:56.907Z,17.17
2018-10-09T08:36:24.959Z,16.60
2018-10-09T08:38:53.179Z,20.53
2018-10-09T08:41:21.262Z,19.53
2018-10-09T08:43:49.290Z,22.60
2018-10-09T08:46:17.299Z,23.07
2018-10-09T08:48:45.361Z,26.73
2018-10-09T08:51:13.435Z,24.73
2018-10-09T08:53:41.476Z,20.93
2018-10-09T08:56:10.220Z,26.40
2018-10-09T08:58:38.237Z,26.57
2018-10-09T09:01:06.260Z,24.80
2018-10-09T09:03:34.303Z,25.20
2018-10-09T09:06:02.346Z,29.63
2018-10-09T09:08:30.360Z,30.87
2018-10-09T09:10:58.389Z,28.00
2018-10-09T09:13:27.150Z,26.03
2018-10-09T09:15:55.263Z,24.77
2018-10-09T09:18:23.282Z,26.60
2018-10-09T09:20:51.560Z,28.87
2018-10-09T09:23:19.546Z,23.43
2018-10-09T09:25:47.683Z,23.80
2018-10-09T09:28:15.775Z,28.00
2018-10-09T09:30:43.855Z,22.27
2018-10-09T09:33:11.950Z,23.00
2018-10-09T09:35:40.021Z,26.63
2018-10-09T09:38:08.023Z,25.30
2018-10-09T09:40:36.029Z,22.47
2018-10-09T09:43:04.023Z,24.67
2018-10-09T09:45:33.327Z,21.70
2018-10-09T09:48:01.479Z,20.43
2018-10-09T09:50:29.509Z,18.90
2018-10-09T09:52:57.503Z,25.27
2018-10-09T09:55:25.624Z,22.60
2018-10-09T09:57:53.718Z,19.30
2018-10-09T10:00:27.106Z,21.63
2018-10-09T10:02:55.073Z,25.23
2018-10-09T10:05:23.235Z,21.97
2018-10-09T10:07:52.230Z,21.53
2018-10-09T10:10:20.229Z,26.30
2018-10-09T10:12:49.887Z,23.23
2018-10-09T10:15:18.796Z,23.20
2018-10-09T10:17:46.830Z,29.37
2018-10-09T10:20:14.987Z,23.83
2018-10-09T10:22:43.091Z,22.90
2018-10-09T10:25:11.157Z,20.23
2018-10-09T10:27:39.243Z,20.70
2018-10-09T10:30:07.341Z,22.90
2018-10-09T10:32:35.373Z,26.67
2018-10-09T10:35:03.568Z,26.83
2018-10-09T10:37:31.707Z,21.53
2018-10-09T10:39:59.749Z,25.17
2018-10-09T10:42:27.804Z,24.93
2018-10-09T10:44:55.774Z,25.77
2018-10-09T10:47:23.991Z,19.63
2018-10-09T10:49:52.017Z,20.87
2018-10-09T10:52:20.071Z,23.20
2018-10-09T10:54:48.100Z,27.33
2018-10-09T10:57:16.089Z,22.70
2018-10-09T10:59:44.113Z,21.93
2018-10-09T11:02:12.115Z,21.90
2018-10-09T11:04:40.145Z,20.30
2018-10-09T11:07:08.155Z,24.03
2018-10-09T11:09:36.413Z,22.60
2018-10-09T11:12:04.445Z,23.60
2018-10-09T11:14:32.675Z,25.57
2018-10-09T11:17:01.364Z,23.70
2018-10-09T11:19:30.024Z,22.03
2018-10-09T11:21:58.025Z,23.63
2018-10-09T11:24:26.048Z,28.63
2018-10-09T11:26:54.017Z,23.37
2018-10-09T11:29:22.217Z,26.13
2018-10-09T11:31:50.375Z,26.70
2018-10-09T11:34:18.659Z,24.23
2018-10-09T11:36:46.645Z,25.07
2018-10-09T11:39:15.751Z,19.40
2018-10-09T11:41:43.855Z,22.80
2018-10-09T11:44:12.006Z,19.60
2018-10-09T11:46:40.110Z,15.83
2018-10-09T11:49:08.181Z,19.47
2018-10-09T11:51:36.903Z,24.27
2018-10-09T11:54:04.977Z,18.83
2018-10-09T11:56:33.143Z,20.17
2018-10-09T11:59:01.199Z,21.77
2018-10-09T12:01:29.259Z,17.40
2018-10-09T12:04:00.490Z,16.00
2018-10-09T12:06:28.626Z,17.80
2018-10-09T12:08:56.621Z,19.93
2018-10-09T12:11:24.689Z,22.50
2018-10-09T12:13:52.875Z,21.07
2018-10-09T12:16:21.786Z,16.93
2018-10-09T12:18:50.025Z,20.07
2018-10-09T12:21:18.208Z,19.30
2018-10-09T12:23:46.217Z,18.40
2018-10-09T12:26:14.213Z,21.20
2018-10-09T12:28:43.033Z,16.37
2018-10-09T12:31:11.108Z,16.77
2018-10-09T12:33:39.520Z,17.43
2018-10-09T12:36:07.657Z,16.80
2018-10-09T12:38:35.960Z,20.07
2018-10-09T12:41:05.059Z,14.87
2018-10-09T12:43:33.134Z,14.10
2018-10-09T12:46:01.133Z,18.17
2018-10-09T12:48:29.277Z,19.53
2018-10-09T12:50:57.278Z,16.40
2018-10-09T12:53:25.610Z,18.33
2018-10-09T12:55:53.794Z,18.67
2018-10-09T12:58:21.839Z,16.27
2018-10-09T13:00:50.054Z,15.60
2018-10-09T13:03:18.363Z,15.17
2018-10-09T13:05:46.541Z,15.97
2018-10-09T13:08:14.763Z,15.63
2018-10-09T13:10:43.318Z,18.07
2018-10-09T13:13:11.477Z,15.23
2018-10-09T13:15:40.448Z,15.40
2018-10-09T13:20:35.638Z,15.57
2018-10-09T13:23:03.649Z,14.60
2018-10-09T13:25:31.767Z,20.63
2018-10-09T13:27:59.854Z,12.70
2018-10-09T13:30:27.936Z,16.77
2018-10-09T13:32:55.948Z,13.37
2018-10-09T13:35:25.254Z,16.63
2018-10-09T13:37:53.392Z,14.47
2018-10-09T13:40:21.438Z,12.73
2018-10-09T13:42:49.532Z,14.50
2018-10-09T13:45:17.659Z,13.70
2018-10-09T13:47:45.994Z,15.83
2018-10-09T13:50:14.036Z,18.47
2018-10-09T13:52:42.128Z,13.03
2018-10-09T13:55:10.211Z,10.17
2018-10-09T13:57:38.214Z,13.70
2018-10-09T14:00:06.609Z,13.37
2018-10-09T14:02:34.624Z,13.50
2018-10-09T14:05:03.100Z,11.97
2018-10-09T14:07:31.228Z,11.00
2018-10-09T14:09:59.417Z,13.23
2018-10-09T14:12:27.629Z,14.07
2018-10-09T14:14:55.746Z,13.53
2018-10-09T14:17:24.132Z,13.70
2018-10-09T14:19:52.184Z,10.90
2018-10-09T14:22:20.370Z,11.87
2018-10-09T14:24:52.019Z,14.23
2018-10-09T14:27:20.263Z,10.37
2018-10-09T14:29:48.423Z,13.50
2018-10-09T14:32:16.688Z,12.83
2018-10-09T14:34:44.844Z,13.77
2018-10-09T14:37:13.258Z,11.70
2018-10-09T14:39:41.362Z,9.87
2018-10-09T14:42:09.466Z,12.93
2018-10-09T14:44:37.745Z,8.67
2018-10-09T14:47:06.010Z,9.10
2018-10-09T14:49:34.458Z,9.50
2018-10-09T14:52:03.009Z,9.37
2018-10-09T14:54:30.812Z,8.50
2018-10-09T14:56:58.696Z,11.13
2018-10-09T14:59:26.557Z,8.90
2018-10-09T15:01:55.363Z,6.93
2018-10-09T15:04:23.242Z,11.63
2018-10-09T15:06:51.260Z,10.97
2018-10-09T15:09:19.394Z,9.53
2018-10-09T15:11:47.274Z,12.40
2018-10-09T15:14:15.369Z,12.17
2018-10-09T15:16:43.276Z,7.57
2018-10-09T15:19:11.180Z,7.60
2018-10-09T15:21:39.108Z,7.17
2018-10-09T15:24:06.966Z,9.63
2018-10-09T15:26:34.887Z,8.40
2018-10-09T15:29:02.842Z,9.90
2018-10-09T15:31:30.634Z,10.23
2018-10-09T15:33:58.482Z,7.87
2018-10-09T15:36:26.500Z,7.67
2018-10-09T15:38:54.314Z,7.53
2018-10-09T15:41:22.274Z,7.37
2018-10-09T15:43:50.222Z,7.90
2018-10-09T15:46:18.550Z,11.17
2018-10-09T15:48:46.517Z,6.57
2018-10-09T15:51:14.328Z,6.77
2018-10-09T15:53:42.175Z,10.27
2018-10-09T15:56:10.099Z,7.00
2018-10-09T15:58:37.931Z,7.87
2018-10-09T16:01:07.194Z,7.27
2018-10-09T16:03:35.161Z,5.97
2018-10-09T16:06:03.717Z,8.67
2018-10-09T16:08:32.606Z,7.70
2018-10-09T16:11:01.478Z,5.00
2018-10-09T16:13:31.333Z,7.20
2018-10-09T16:15:59.719Z,9.07
2018-10-09T16:18:27.629Z,9.17
2018-10-09T16:20:56.374Z,7.33
2018-10-09T16:23:26.051Z,4.43
2018-10-09T16:25:56.202Z,6.03
2018-10-09T16:28:24.858Z,7.13
2018-10-09T16:30:54.155Z,4.77
2018-10-09T16:33:25.795Z,7.30
2018-10-09T16:35:54.969Z,5.77
2018-10-09T16:38:23.350Z,6.17
2018-10-09T16:40:52.295Z,9.33
2018-10-09T16:43:20.195Z,11.37
2018-10-09T16:45:48.016Z,10.40
2018-10-09T16:48:16.064Z,9.50
2018-10-09T16:50:43.968Z,10.37
2018-10-09T16:53:12.835Z,9.63
2018-10-09T16:55:41.101Z,7.57
2018-10-09T16:58:08.957Z,7.97
2018-10-09T17:00:36.908Z,8.23
2018-10-09T17:03:04.705Z,7.60
2018-10-09T17:05:32.693Z,8.03
2018-10-09T17:08:00.563Z,7.20
2018-10-09T17:10:28.511Z,7.47
2018-10-09T17:13:03.977Z,6.27
2018-10-09T17:15:31.926Z,6.33
2018-10-09T17:18:02.707Z,6.77
2018-10-09T17:20:36.392Z,6.50
2018-10-09T17:23:09.242Z,8.00
2018-10-09T17:25:43.624Z,6.87
2018-10-09T17:28:11.517Z,7.90
2018-10-09T17:30:39.493Z,8.10
2018-10-09T17:33:07.805Z,8.33
2018-10-09T17:35:41.142Z,8.43
2018-10-09T17:38:09.212Z,11.03
2018-10-09T17:40:37.769Z,7.50
2018-10-09T17:43:06.570Z,9.40
2018-10-09T17:45:41.331Z,10.50
2018-10-09T17:48:09.406Z,8.53
2018-10-09T17:50:37.431Z,9.53
2018-10-09T17:53:06.097Z,10.00
2018-10-09T17:55:35.019Z,9.00
2018-10-09T17:58:03.399Z,8.37
2018-10-09T18:00:31.294Z,9.93
2018-10-09T18:02:59.267Z,7.73
2018-10-09T18:05:34.683Z,11.40
2018-10-09T18:08:02.625Z,11.10
2018-10-09T18:10:37.105Z,8.77
2018-10-09T18:13:05.967Z,8.80
2018-10-09T18:15:34.090Z,9.47
2018-10-09T18:18:03.054Z,8.30
2018-10-09T18:20:31.008Z,8.53
2018-10-09T18:22:59.359Z,8.53
2018-10-09T18:25:29.273Z,8.83
2018-10-09T18:27:57.252Z,9.63
2018-10-09T18:30:25.326Z,8.47
2018-10-09T18:32:53.435Z,7.23
2018-10-09T18:35:21.156Z,8.17
2018-10-09T18:37:49.157Z,8.33
2018-10-09T18:40:17.091Z,11.20
2018-10-09T18:42:45.797Z,9.33
2018-10-09T18:45:16.665Z,9.10
2018-10-09T18:47:46.117Z,10.37
2018-10-09T18:50:16.301Z,7.87
2018-10-09T18:52:44.218Z,8.33
2018-10-09T18:55:13.988Z,8.53
2018-10-09T18:57:42.216Z,7.83
2018-10-09T19:00:10.543Z,10.00
2018-10-09T19:02:39.019Z,14.00
2018-10-09T19:05:07.353Z,52.43
2018-10-09T19:07:36.898Z,52.77
2018-10-09T19:10:06.973Z,27.17
2018-10-09T19:12:34.873Z,21.53
2018-10-09T19:15:05.286Z,19.67
2018-10-09T19:17:34.183Z,18.73
2018-10-09T19:20:02.044Z,16.87
2018-10-09T19:22:29.961Z,20.77
2018-10-09T19:24:57.939Z,18.37
2018-10-09T19:27:25.871Z,21.93
2018-10-09T19:29:54.303Z,17.33
2018-10-09T19:32:23.383Z,15.73
2018-10-09T19:34:54.618Z,15.70
2018-10-09T19:37:22.841Z,14.63
2018-10-09T19:39:50.729Z,15.27
2018-10-09T19:42:21.781Z,14.83
2018-10-09T19:44:49.739Z,15.70
2018-10-09T19:47:19.432Z,14.03
2018-10-09T19:49:49.055Z,12.73
2018-10-09T19:52:16.949Z,10.67
2018-10-09T19:54:45.699Z,13.90
2018-10-09T19:57:16.096Z,10.17
2018-10-09T19:59:48.719Z,12.43
2018-10-09T20:02:19.697Z,10.93
2018-10-09T20:04:47.794Z,14.53
2018-10-09T20:07:15.726Z,12.23
2018-10-09T20:09:43.590Z,11.50
2018-10-09T20:12:11.559Z,10.27
2018-10-09T20:14:39.506Z,10.40
2018-10-09T20:17:07.420Z,11.10
2018-10-09T20:19:35.193Z,9.20
2018-10-09T20:22:03.085Z,11.53
2018-10-09T20:24:30.939Z,11.87
2018-10-09T20:26:58.875Z,10.77
2018-10-09T20:29:26.735Z,16.27
2018-10-09T20:31:55.224Z,11.23
2018-10-09T20:34:23.020Z,12.13
2018-10-09T20:36:51.554Z,12.03
2018-10-09T20:39:20.250Z,13.53
2018-10-09T20:41:48.689Z,13.67
2018-10-09T20:44:16.499Z,11.60
2018-10-09T20:46:46.269Z,12.73
2018-10-09T20:49:22.735Z,11.83
2018-10-09T20:51:50.977Z,12.50
2018-10-09T20:54:22.533Z,14.03
2018-10-09T20:56:50.406Z,11.47
2018-10-09T20:59:18.263Z,10.97
2018-10-09T21:01:46.951Z,12.17
2018-10-09T21:04:18.116Z,12.10
2018-10-09T21:06:47.354Z,12.93
2018-10-09T21:09:15.176Z,10.60
2018-10-09T21:11:43.713Z,13.00
2018-10-09T21:14:13.091Z,9.90
2018-10-09T21:16:41.871Z,10.63
2018-10-09T21:19:09.729Z,10.23
2018-10-09T21:21:37.560Z,9.77
2018-10-09T21:24:05.386Z,11.97
2018-10-09T21:26:33.241Z,10.93
2018-10-09T21:29:01.172Z,10.00
2018-10-09T21:31:29.032Z,10.23
2018-10-09T21:33:57.364Z,11.00
2018-10-09T21:36:26.162Z,11.17
2018-10-09T21:38:53.926Z,10.03
2018-10-09T21:41:21.755Z,12.77
2018-10-09T21:43:50.550Z,12.97
2018-10-09T21:46:18.458Z,10.70
2018-10-09T21:48:46.207Z,12.10
2018-10-09T21:51:14.033Z,9.90
2018-10-09T21:53:42.618Z,14.67
2018-10-09T21:56:11.135Z,14.17
2018-10-09T21:58:38.899Z,14.73
2018-10-09T22:01:09.671Z,15.10
2018-10-09T22:03:38.395Z,11.80
2018-10-09T22:06:06.831Z,16.10
2018-10-09T22:08:34.589Z,15.57
2018-10-09T22:11:02.390Z,14.37
2018-10-09T22:13:30.213Z,15.83
2018-10-09T22:15:58.670Z,16.93
2018-10-09T22:18:27.356Z,15.63
2018-10-09T22:20:55.215Z,16.10
2018-10-09T22:23:24.360Z,14.37
2018-10-09T22:25:52.172Z,17.83
2018-10-09T22:28:20.060Z,14.23
2018-10-09T22:30:47.878Z,13.73
2018-10-09T22:33:15.658Z,15.67
2018-10-09T22:35:43.665Z,14.63
2018-10-09T22:38:11.438Z,13.53
2018-10-09T22:40:39.251Z,15.43
2018-10-09T22:43:07.072Z,13.23
2018-10-09T22:45:34.896Z,13.57
2018-10-09T22:48:02.698Z,12.33
2018-10-09T22:50:30.509Z,15.80
2018-10-09T22:52:58.305Z,16.57
2018-10-09T22:55:26.115Z,15.30
2018-10-09T22:57:53.960Z,15.63
2018-10-09T23:00:21.764Z,15.33
2018-10-09T23:02:49.570Z,16.23
2018-10-09T23:05:17.353Z,19.47
2018-10-09T23:07:45.157Z,14.30
2018-10-09T23:10:12.954Z,13.40
2018-10-09T23:12:40.754Z,15.20
2018-10-09T23:15:08.983Z,14.93
2018-10-09T23:17:36.781Z,13.57
2018-10-09T23:20:05.040Z,13.10
2018-10-09T23:22:32.866Z,15.07
2018-10-09T23:25:00.686Z,12.23
2018-10-09T23:27:28.486Z,12.87
2018-10-09T23:29:56.334Z,15.87
2018-10-09T23:32:24.144Z,13.57
2018-10-09T23:34:51.954Z,12.40
2018-10-09T23:37:19.745Z,14.63
2018-10-09T23:39:47.597Z,15.47
2018-10-09T23:42:15.423Z,12.57
2018-10-09T23:44:43.226Z,12.63
2018-10-09T23:47:11.020Z,13.93
2018-10-09T23:49:38.804Z,15.20
2018-10-09T23:52:06.712Z,12.97
2018-10-09T23:54:34.522Z,12.73
2018-10-09T23:57:02.356Z,14.70
2018-10-09T23:59:31.212Z,16.90
